createdAt,value
2018-04-02T00:02:05.665Z,4.10
2018-04-02T00:04:33.299Z,3.93
2018-04-02T00:07:00.180Z,3.57
2018-04-02T00:09:27.247Z,3.87
2018-04-02T00:11:55.309Z,4.20
2018-04-02T00:14:22.241Z,3.90
2018-04-02T00:16:49.204Z,3.53
2018-04-02T00:19:16.533Z,3.80
2018-04-02T00:21:43.455Z,3.50
2018-04-02T00:24:10.574Z,4.67
2018-04-02T00:26:38.369Z,4.37
2018-04-02T00:29:06.324Z,3.80
2018-04-02T00:31:34.298Z,3.80
2018-04-02T00:34:01.270Z,4.20
2018-04-02T00:36:28.859Z,3.60
2018-04-02T00:38:57.076Z,4.17
2018-04-02T00:41:24.152Z,4.40
2018-04-02T00:43:51.091Z,3.80
2018-04-02T00:46:18.659Z,3.50
2018-04-02T00:48:45.723Z,4.83
2018-04-02T00:51:14.346Z,4.47
2018-04-02T00:53:41.360Z,3.60
2018-04-02T00:56:08.502Z,4.20
2018-04-02T00:58:35.965Z,3.90
2018-04-02T01:01:02.908Z,4.30
2018-04-02T01:03:29.969Z,3.90
2018-04-02T01:05:57.442Z,4.30
2018-04-02T01:08:24.599Z,4.33
2018-04-02T01:10:53.003Z,4.30
2018-04-02T01:13:20.113Z,3.90
2018-04-02T01:15:47.071Z,3.93
2018-04-02T01:18:14.716Z,3.83
2018-04-02T01:20:41.724Z,3.93
2018-04-02T01:23:09.695Z,3.63
2018-04-02T01:25:37.531Z,3.50
2018-04-02T01:28:04.444Z,3.90
2018-04-02T01:30:32.148Z,3.83
2018-04-02T01:32:59.196Z,4.43
2018-04-02T01:35:26.344Z,3.87
2018-04-02T01:37:54.344Z,4.40
2018-04-02T01:40:21.982Z,4.13
2018-04-02T01:42:49.759Z,4.10
2018-04-02T01:45:16.683Z,4.60
2018-04-02T01:47:43.632Z,4.90
2018-04-02T01:50:10.621Z,3.90
2018-04-02T01:52:37.778Z,4.20
2018-04-02T01:55:05.354Z,4.27
2018-04-02T01:57:33.009Z,4.13
2018-04-02T02:00:00.060Z,4.30
2018-04-02T02:02:27.023Z,4.57
2018-04-02T02:04:54.712Z,4.27
2018-04-02T02:07:22.545Z,4.53
2018-04-02T02:09:50.299Z,3.80
2018-04-02T02:12:17.409Z,4.10
2018-04-02T02:14:44.420Z,3.93
2018-04-02T02:17:12.274Z,3.90
2018-04-02T02:19:39.483Z,3.70
2018-04-02T02:22:06.395Z,4.00
2018-04-02T02:24:33.748Z,4.00
2018-04-02T02:27:00.796Z,4.30
2018-04-02T02:29:27.792Z,4.60
2018-04-02T02:34:27.900Z,4.27
2018-04-02T02:36:55.754Z,4.03
2018-04-02T02:39:22.842Z,4.27
2018-04-02T02:41:49.794Z,4.10
2018-04-02T02:44:18.267Z,4.17
2018-04-02T02:46:45.320Z,4.57
2018-04-02T02:49:12.384Z,4.47
2018-04-02T02:51:40.345Z,4.50
2018-04-02T02:54:07.491Z,3.70
2018-04-02T02:56:34.544Z,4.50
2018-04-02T02:59:02.621Z,4.17
2018-04-02T03:01:29.680Z,4.47
2018-04-02T03:03:56.833Z,4.10
2018-04-02T03:06:25.005Z,3.80
2018-04-02T03:08:52.186Z,3.87
2018-04-02T03:11:20.754Z,4.57
2018-04-02T03:13:47.809Z,3.90
2018-04-02T03:16:15.549Z,3.40
2018-04-02T03:18:42.512Z,4.50
2018-04-02T03:21:09.580Z,4.40
2018-04-02T03:23:37.243Z,3.90
2018-04-02T03:26:04.395Z,3.87
2018-04-02T03:28:31.362Z,4.03
2018-04-02T03:30:59.129Z,4.63
2018-04-02T03:33:26.268Z,4.40
2018-04-02T03:35:53.322Z,4.10
2018-04-02T03:38:21.189Z,4.13
2018-04-02T03:40:48.295Z,3.50
2018-04-02T03:43:16.216Z,4.00
2018-04-02T03:45:43.130Z,4.13
2018-04-02T03:48:10.090Z,3.70
2018-04-02T03:50:37.711Z,3.57
2018-04-02T03:53:05.572Z,3.80
2018-04-02T03:55:32.512Z,3.40
2018-04-02T03:58:00.100Z,3.60
2018-04-02T04:00:27.855Z,3.13
2018-04-02T04:02:55.718Z,3.70
2018-04-02T04:05:22.660Z,2.70
2018-04-02T04:07:50.177Z,3.37
2018-04-02T04:10:17.393Z,2.97
2018-04-02T04:12:44.453Z,3.20
2018-04-02T04:15:12.140Z,3.10
2018-04-02T04:17:39.770Z,3.20
2018-04-02T04:20:07.024Z,3.00
2018-04-02T04:22:34.454Z,3.23
2018-04-02T04:25:01.464Z,3.20
2018-04-02T04:27:29.825Z,3.30
2018-04-02T04:29:56.768Z,3.13
2018-04-02T04:32:23.923Z,3.17
2018-04-02T04:34:51.495Z,3.20
2018-04-02T04:37:18.520Z,3.10
2018-04-02T04:39:46.297Z,3.10
2018-04-02T04:42:13.237Z,3.30
2018-04-02T04:44:40.215Z,3.10
2018-04-02T04:47:07.991Z,3.53
2018-04-02T04:49:35.249Z,3.00
2018-04-02T04:52:02.206Z,3.10
2018-04-02T04:54:30.115Z,3.57
2018-04-02T04:56:57.223Z,3.10
2018-04-02T04:59:24.143Z,2.87
2018-04-02T05:01:51.839Z,3.10
2018-04-02T05:04:18.995Z,3.10
2018-04-02T05:06:45.956Z,3.27
2018-04-02T05:09:13.499Z,3.57
2018-04-02T05:11:40.464Z,3.23
2018-04-02T05:14:08.381Z,3.27
2018-04-02T05:16:35.482Z,3.93
2018-04-02T05:19:02.432Z,4.00
2018-04-02T05:21:30.103Z,3.37
2018-04-02T05:23:57.176Z,3.20
2018-04-02T05:26:25.851Z,3.60
2018-04-02T05:28:52.893Z,3.17
2018-04-02T05:31:19.959Z,3.80
2018-04-02T05:33:47.463Z,4.07
2018-04-02T05:36:14.556Z,3.80
2018-04-02T05:38:41.427Z,3.57
2018-04-02T05:41:09.189Z,3.40
2018-04-02T05:43:36.261Z,3.93
2018-04-02T05:46:04.612Z,4.37
2018-04-02T05:48:31.884Z,3.67
2018-04-02T05:50:58.834Z,3.80
2018-04-02T05:53:26.639Z,4.53
2018-04-02T05:55:53.755Z,4.10
2018-04-02T05:58:20.703Z,4.60
2018-04-02T06:00:48.646Z,3.90
2018-04-02T06:03:15.528Z,4.17
2018-04-02T06:05:42.441Z,3.90
2018-04-02T06:08:09.533Z,4.43
2018-04-02T06:10:37.533Z,4.17
2018-04-02T06:13:05.124Z,4.10
2018-04-02T06:15:32.972Z,4.13
2018-04-02T06:18:00.704Z,4.23
2018-04-02T06:20:27.658Z,3.50
2018-04-02T06:22:55.289Z,3.63
2018-04-02T06:25:22.304Z,4.10
2018-04-02T06:27:50.848Z,4.17
2018-04-02T06:30:17.676Z,3.80
2018-04-02T06:32:44.653Z,4.17
2018-04-02T06:35:12.537Z,4.70
2018-04-02T06:37:39.340Z,4.50
2018-04-02T06:40:06.635Z,4.57
2018-04-02T06:42:34.408Z,4.20
2018-04-02T06:45:01.570Z,4.20
2018-04-02T06:47:28.833Z,4.87
2018-04-02T06:49:56.588Z,3.73
2018-04-02T06:52:23.535Z,3.97
2018-04-02T06:54:50.598Z,3.67
2018-04-02T06:57:18.333Z,3.80
2018-04-02T06:59:45.308Z,3.57
2018-04-02T07:02:12.248Z,3.60
2018-04-02T07:04:39.887Z,3.63
2018-04-02T07:07:06.987Z,4.30
2018-04-02T07:09:34.265Z,3.60
2018-04-02T07:12:01.469Z,3.80
2018-04-02T07:14:28.438Z,3.70
2018-04-02T07:16:55.492Z,3.90
2018-04-02T07:19:22.859Z,3.60
2018-04-02T07:21:49.768Z,3.90
2018-04-02T07:24:16.768Z,3.60
2018-04-02T07:26:44.294Z,4.60
2018-04-02T07:29:11.282Z,4.47
2018-04-02T07:31:38.327Z,7.70
2018-04-02T07:34:06.017Z,6.73
2018-04-02T07:36:33.716Z,7.20
2018-04-02T07:39:00.716Z,8.00
2018-04-02T07:41:28.605Z,8.77
2018-04-02T07:43:56.360Z,7.83
2018-04-02T07:46:24.859Z,7.40
2018-04-02T07:48:52.700Z,7.50
2018-04-02T07:51:20.688Z,7.83
2018-04-02T07:53:47.711Z,7.73
2018-04-02T07:56:14.800Z,8.70
2018-04-02T07:58:41.748Z,7.63
2018-04-02T08:01:09.301Z,7.50
2018-04-02T08:03:36.302Z,7.37
2018-04-02T08:06:03.308Z,7.33
2018-04-02T08:08:31.087Z,8.37
2018-04-02T08:10:58.825Z,8.10
2018-04-02T08:13:25.895Z,8.67
2018-04-02T08:15:53.270Z,8.60
2018-04-02T08:18:21.136Z,9.07
2018-04-02T08:20:49.163Z,9.53
2018-04-02T08:23:16.212Z,9.47
2018-04-02T08:25:43.412Z,9.87
2018-04-02T08:28:11.445Z,9.50
2018-04-02T08:30:38.544Z,9.50
2018-04-02T08:33:05.714Z,9.80
2018-04-02T08:35:33.070Z,9.53
2018-04-02T08:38:01.032Z,10.33
2018-04-02T08:40:28.021Z,9.80
2018-04-02T08:42:55.449Z,8.00
2018-04-02T08:45:22.649Z,9.83
2018-04-02T08:47:50.408Z,8.50
2018-04-02T08:50:17.272Z,9.30
2018-04-02T08:52:44.365Z,8.60
2018-04-02T08:55:12.280Z,15.27
2018-04-02T08:57:39.698Z,13.50
2018-04-02T09:00:06.653Z,13.07
2018-04-02T09:02:34.336Z,10.73
2018-04-02T09:05:02.215Z,10.67
2018-04-02T09:07:30.670Z,10.27
2018-04-02T09:09:57.619Z,8.83
2018-04-02T09:12:24.575Z,7.90
2018-04-02T09:14:52.495Z,7.80
2018-04-02T09:17:19.527Z,8.00
2018-04-02T09:19:47.246Z,7.40
2018-04-02T09:22:14.803Z,7.47
2018-04-02T09:24:41.885Z,7.07
2018-04-02T09:27:08.924Z,7.60
2018-04-02T09:29:36.195Z,7.00
2018-04-02T09:32:04.042Z,6.47
2018-04-02T09:34:32.007Z,6.60
2018-04-02T09:36:58.992Z,7.70
2018-04-02T09:39:26.466Z,6.83
2018-04-02T09:41:54.835Z,5.80
2018-04-02T09:44:21.792Z,5.70
2018-04-02T09:46:48.642Z,5.23
2018-04-02T09:49:15.698Z,6.20
2018-04-02T09:51:43.553Z,5.50
2018-04-02T09:54:10.550Z,4.80
2018-04-02T09:56:38.196Z,4.50
2018-04-02T09:59:06.226Z,4.30
2018-04-02T10:01:33.308Z,4.97
2018-04-02T10:04:00.480Z,4.50
2018-04-02T10:06:28.664Z,4.07
2018-04-02T10:08:56.281Z,4.73
2018-04-02T10:11:24.419Z,4.10
2018-04-02T10:13:51.429Z,3.47
2018-04-02T10:16:18.380Z,3.60
2018-04-02T10:18:45.348Z,4.73
2018-04-02T10:21:13.325Z,3.97
2018-04-02T10:23:41.090Z,3.97
2018-04-02T10:26:09.680Z,5.30
2018-04-02T10:28:37.355Z,4.90
2018-04-02T10:31:05.204Z,4.40
2018-04-02T10:33:33.074Z,4.60
2018-04-02T10:36:00.217Z,4.00
2018-04-02T10:38:27.296Z,4.80
2018-04-02T10:40:55.048Z,4.30
2018-04-02T10:43:22.162Z,4.73
2018-04-02T10:45:49.769Z,4.40
2018-04-02T10:48:17.549Z,4.13
2018-04-02T10:50:44.420Z,4.10
2018-04-02T10:53:12.076Z,4.17
2018-04-02T10:55:39.820Z,4.17
2018-04-02T10:58:06.793Z,3.27
2018-04-02T11:00:34.637Z,3.67
2018-04-02T11:03:02.518Z,3.57
2018-04-02T11:05:29.675Z,3.20
2018-04-02T11:07:57.732Z,3.10
2018-04-02T11:10:24.737Z,3.50
2018-04-02T11:12:52.468Z,3.80
2018-04-02T11:15:20.357Z,3.03
2018-04-02T11:17:47.288Z,3.40
2018-04-02T11:20:14.335Z,4.03
2018-04-02T11:22:42.075Z,3.60
2018-04-02T11:25:09.303Z,3.50
2018-04-02T11:27:37.144Z,3.40
2018-04-02T11:30:04.719Z,2.83
2018-04-02T11:32:31.760Z,2.90
2018-04-02T11:34:59.792Z,2.80
2018-04-02T11:37:26.880Z,2.57
2018-04-02T11:39:53.936Z,2.20
2018-04-02T11:42:20.846Z,2.80
2018-04-02T11:44:48.809Z,2.33
2018-04-02T11:47:15.815Z,2.10
2018-04-02T11:49:42.776Z,2.33
2018-04-02T11:52:11.465Z,3.10
2018-04-02T11:54:39.323Z,3.40
2018-04-02T11:57:06.365Z,2.80
2018-04-02T11:59:33.743Z,2.40
2018-04-02T12:02:01.536Z,3.23
2018-04-02T12:04:30.066Z,2.90
2018-04-02T12:06:57.153Z,3.07
2018-04-02T12:09:26.028Z,2.87
2018-04-02T12:11:52.888Z,2.57
2018-04-02T12:14:19.941Z,2.37
2018-04-02T12:16:46.977Z,3.10
2018-04-02T12:19:14.783Z,2.57
2018-04-02T12:21:42.624Z,2.87
2018-04-02T12:24:09.584Z,3.10
2018-04-02T12:26:37.149Z,3.63
2018-04-02T12:29:04.368Z,3.10
2018-04-02T12:31:31.560Z,2.70
2018-04-02T12:33:58.987Z,3.23
2018-04-02T12:36:25.857Z,3.00
2018-04-02T12:38:53.134Z,3.00
2018-04-02T12:41:20.997Z,3.40
2018-04-02T12:43:48.028Z,3.70
2018-04-02T12:46:15.215Z,3.17
2018-04-02T12:48:42.989Z,3.33
2018-04-02T12:51:10.849Z,3.13
2018-04-02T12:53:38.839Z,3.83
2018-04-02T12:56:05.783Z,3.20
2018-04-02T12:58:32.846Z,3.47
2018-04-02T13:01:00.689Z,3.10
2018-04-02T13:03:27.806Z,3.03
2018-04-02T13:05:54.894Z,2.67
2018-04-02T13:08:21.948Z,3.13
2018-04-02T13:10:49.880Z,2.60
2018-04-02T13:13:17.764Z,2.20
2018-04-02T13:15:45.589Z,2.80
2018-04-02T13:18:12.733Z,2.37
2018-04-02T13:20:39.632Z,2.30
2018-04-02T13:23:07.414Z,2.03
2018-04-02T13:25:34.550Z,2.90
2018-04-02T13:28:01.661Z,3.17
2018-04-02T13:30:28.613Z,3.10
2018-04-02T13:32:56.184Z,3.10
2018-04-02T13:35:23.323Z,3.10
2018-04-02T13:37:50.261Z,2.77
2018-04-02T13:40:18.325Z,2.40
2018-04-02T13:42:45.416Z,2.97
2018-04-02T13:45:13.824Z,2.60
2018-04-02T13:47:40.761Z,2.43
2018-04-02T13:50:08.400Z,3.10
2018-04-02T13:52:36.316Z,2.50
2018-04-02T13:55:04.009Z,2.60
2018-04-02T13:57:31.112Z,3.07
2018-04-02T13:59:59.193Z,2.40
2018-04-02T14:02:27.046Z,2.97
2018-04-02T14:04:54.869Z,2.63
2018-04-02T14:07:21.984Z,3.23
2018-04-02T14:09:49.124Z,2.53
2018-04-02T14:12:17.824Z,2.27
2018-04-02T14:14:44.798Z,2.60
2018-04-02T14:17:12.553Z,2.20
2018-04-02T14:19:39.896Z,2.93
2018-04-02T14:22:06.921Z,2.10
2018-04-02T14:24:33.767Z,2.80
2018-04-02T14:27:01.130Z,2.27
2018-04-02T14:29:27.996Z,2.30
2018-04-02T14:31:55.056Z,2.60
2018-04-02T14:34:23.172Z,2.50
2018-04-02T14:36:50.236Z,2.20
2018-04-02T14:39:17.195Z,2.70
2018-04-02T14:41:44.089Z,2.80
2018-04-02T14:44:11.563Z,2.53
2018-04-02T14:46:39.193Z,2.33
2018-04-02T14:49:06.853Z,2.27
2018-04-02T14:51:33.918Z,2.63
2018-04-02T14:54:01.004Z,2.30
2018-04-02T14:56:29.510Z,2.70
2018-04-02T14:58:56.428Z,2.20
2018-04-02T15:01:23.605Z,2.23
2018-04-02T15:03:51.957Z,2.40
2018-04-02T15:06:19.011Z,1.97
2018-04-02T15:08:46.092Z,2.57
2018-04-02T15:11:14.218Z,2.60
2018-04-02T15:13:41.399Z,2.43
2018-04-02T15:16:08.327Z,2.60
2018-04-02T15:18:36.077Z,2.40
2018-04-02T15:21:03.292Z,2.20
2018-04-02T15:23:32.778Z,2.30
2018-04-02T15:25:59.739Z,2.83
2018-04-02T15:28:26.781Z,2.53
2018-04-02T15:30:54.937Z,2.70
2018-04-02T15:33:21.948Z,2.20
2018-04-02T15:35:50.436Z,2.37
2018-04-02T15:38:18.032Z,2.70
2018-04-02T15:40:44.969Z,2.60
2018-04-02T15:43:12.793Z,2.57
2018-04-02T15:45:40.702Z,2.30
2018-04-02T15:48:07.607Z,2.40
2018-04-02T15:50:35.368Z,2.40
2018-04-02T15:53:02.435Z,2.33
2018-04-02T15:55:29.485Z,2.10
2018-04-02T15:57:58.075Z,2.20
2018-04-02T16:00:25.117Z,2.77
2018-04-02T16:02:52.080Z,3.00
2018-04-02T16:05:19.533Z,2.00
2018-04-02T16:07:46.444Z,1.90
2018-04-02T16:10:13.316Z,2.57
2018-04-02T16:12:41.119Z,2.00
2018-04-02T16:15:08.920Z,2.23
2018-04-02T16:17:35.913Z,2.50
2018-04-02T16:20:03.775Z,2.40
2018-04-02T16:22:30.723Z,1.80
2018-04-02T16:24:57.591Z,2.93
2018-04-02T16:27:25.463Z,2.40
2018-04-02T16:29:52.417Z,2.20
2018-04-02T16:32:19.573Z,2.10
2018-04-02T16:34:47.390Z,2.70
2018-04-02T16:37:14.384Z,2.30
2018-04-02T16:39:41.749Z,2.53
2018-04-02T16:42:08.721Z,2.00
2018-04-02T16:44:36.461Z,2.17
2018-04-02T16:47:03.519Z,8.63
2018-04-02T16:49:30.555Z,6.07
2018-04-02T16:51:58.357Z,5.80
2018-04-02T16:54:25.414Z,5.63
2018-04-02T16:56:53.880Z,5.23
2018-04-02T16:59:20.830Z,4.77
2018-04-02T17:01:47.776Z,4.80
2018-04-02T17:04:15.563Z,4.53
2018-04-02T17:06:43.441Z,3.93
2018-04-02T17:09:11.192Z,3.90
2018-04-02T17:11:38.642Z,4.00
2018-04-02T17:14:05.909Z,3.57
2018-04-02T17:16:33.067Z,4.27
2018-04-02T17:19:00.666Z,3.80
2018-04-02T17:21:27.698Z,3.47
2018-04-02T17:23:56.218Z,3.60
2018-04-02T17:26:23.454Z,4.17
2018-04-02T17:28:51.307Z,3.20
2018-04-02T17:31:19.288Z,3.40
2018-04-02T17:33:46.345Z,3.80
2018-04-02T17:36:13.953Z,3.90
2018-04-02T17:38:41.496Z,3.47
2018-04-02T17:41:08.810Z,4.07
2018-04-02T17:43:35.845Z,3.23
2018-04-02T17:46:03.684Z,3.50
2018-04-02T17:48:30.825Z,3.50
2018-04-02T17:50:58.777Z,3.57
2018-04-02T17:53:26.641Z,4.57
2018-04-02T17:55:53.593Z,3.50
2018-04-02T17:58:20.529Z,3.27
2018-04-02T18:00:48.318Z,3.10
2018-04-02T18:03:15.264Z,3.40
2018-04-02T18:05:42.316Z,3.63
2018-04-02T18:08:10.071Z,3.00
2018-04-02T18:10:37.361Z,2.90
2018-04-02T18:13:05.201Z,3.00
2018-04-02T18:15:33.288Z,3.20
2018-04-02T18:18:00.341Z,2.87
2018-04-02T18:20:28.113Z,3.00
2018-04-02T18:22:55.185Z,2.87
2018-04-02T18:25:22.765Z,3.20
2018-04-02T18:27:50.691Z,3.20
2018-04-02T18:30:17.645Z,2.87
2018-04-02T18:32:44.702Z,2.97
2018-04-02T18:35:12.450Z,2.53
2018-04-02T18:37:39.457Z,3.23
2018-04-02T18:40:06.679Z,3.10
2018-04-02T18:42:34.441Z,2.93
2018-04-02T18:45:01.823Z,2.67
2018-04-02T18:47:30.408Z,3.27
2018-04-02T18:49:57.328Z,2.93
2018-04-02T18:52:24.507Z,2.90
2018-04-02T18:54:51.445Z,3.53
